createdAt,value
2023-05-02T00:02:48.046Z,100568.50
2023-05-02T00:05:49.901Z,100567.66
2023-05-02T00:08:51.535Z,100572.09
2023-05-02T00:11:53.083Z,100571.41
2023-05-02T00:14:54.585Z,100573.28
2023-05-02T00:17:56.204Z,100573.09
2023-05-02T00:20:57.674Z,100565.97
2023-05-02T00:23:59.966Z,100575.81
2023-05-02T00:27:01.981Z,100570.56
2023-05-02T00:30:03.873Z,100573.28
2023-05-02T00:33:07.006Z,100570.56
2023-05-02T00:36:16.338Z,100574.13
2023-05-02T00:39:18.784Z,100568.00
2023-05-02T00:42:20.379Z,100569.88
2023-05-02T00:45:22.408Z,100572.59
2023-05-02T00:48:25.597Z,100570.72
2023-05-02T00:51:27.412Z,100576.16
2023-05-02T00:54:31.323Z,100580.75
2023-05-02T00:57:33.181Z,100574.47
2023-05-02T01:00:57.944Z,100572.59
2023-05-02T01:04:31.852Z,100576.31
2023-05-02T01:07:48.736Z,100576.31
2023-05-02T01:10:56.024Z,100577.50
2023-05-02T01:13:59.319Z,100578.53
2023-05-02T01:17:08.213Z,100578.66
2023-05-02T01:20:14.402Z,100580.41
2023-05-02T01:23:46.282Z,100581.56
2023-05-02T01:27:09.631Z,100585.97
2023-05-02T01:30:13.342Z,100596.16
2023-05-02T01:33:17.630Z,100589.03
2023-05-02T01:36:20.631Z,100592.78
2023-05-02T01:39:24.856Z,100594.63
2023-05-02T01:42:27.469Z,100602.78
2023-05-02T01:45:29.606Z,100600.25
2023-05-02T01:48:32.331Z,100601.41
2023-05-02T01:51:37.100Z,100600.38
2023-05-02T01:54:40.955Z,100608.72
2023-05-02T01:57:46.044Z,100600.72
2023-05-02T02:00:49.087Z,100616.19
2023-05-02T02:03:51.788Z,100609.03
2023-05-02T02:07:02.188Z,100619.06
2023-05-02T02:10:04.206Z,100619.25
2023-05-02T02:13:17.711Z,100627.38
2023-05-02T02:16:25.574Z,100628.38
2023-05-02T02:19:30.541Z,100625.66
2023-05-02T02:22:37.147Z,100623.97
2023-05-02T02:25:39.583Z,100633.31
2023-05-02T02:28:41.207Z,100640.63
2023-05-02T02:31:42.681Z,100634.31
2023-05-02T02:34:44.820Z,100640.63
2023-05-02T02:37:48.341Z,100643.47
2023-05-02T02:40:54.909Z,100646.19
2023-05-02T02:44:15.182Z,100648.91
2023-05-02T02:47:32.293Z,100649.94
2023-05-02T02:50:47.449Z,100650.94
2023-05-02T02:54:30.562Z,100652.81
2023-05-02T02:57:35.208Z,100661.28
2023-05-02T03:00:37.348Z,100664.84
2023-05-02T03:03:40.700Z,100671.97
2023-05-02T03:06:42.401Z,100673.00
2023-05-02T03:09:47.036Z,100663.81
2023-05-02T03:12:55.596Z,100667.56
2023-05-02T03:16:20.023Z,100672.69
2023-05-02T03:19:21.670Z,100678.97
2023-05-02T03:22:23.890Z,100678.81
2023-05-02T03:25:25.453Z,100681.38
2023-05-02T03:28:27.010Z,100684.94
2023-05-02T03:31:28.701Z,100691.91
2023-05-02T03:34:30.273Z,100687.31
2023-05-02T03:37:34.302Z,100689.91
2023-05-02T03:40:36.419Z,100694.47
2023-05-02T03:43:43.200Z,100693.47
2023-05-02T03:46:44.714Z,100696.19
2023-05-02T03:49:47.494Z,100703.31
2023-05-02T03:52:50.469Z,100703.31
2023-05-02T03:55:56.320Z,100702.47
2023-05-02T03:59:06.143Z,100705.31
2023-05-02T04:02:07.889Z,100710.63
2023-05-02T04:05:19.320Z,100719.78
2023-05-02T04:08:23.591Z,100713.34
2023-05-02T04:11:27.275Z,100723.34
2023-05-02T04:14:29.772Z,100723.50
2023-05-02T04:17:32.207Z,100725.38
2023-05-02T04:20:34.146Z,100734.38
2023-05-02T04:23:35.820Z,100745.25
2023-05-02T04:26:38.699Z,100740.84
2023-05-02T04:29:44.079Z,100749.00
2023-05-02T04:32:46.965Z,100753.56
2023-05-02T04:35:50.105Z,100759.16
2023-05-02T04:38:53.029Z,100754.56
2023-05-02T04:41:54.576Z,100759.16
2023-05-02T04:44:58.094Z,100768.34
2023-05-02T04:47:59.660Z,100773.78
2023-05-02T04:51:01.225Z,100782.06
2023-05-02T04:54:04.892Z,100789.38
2023-05-02T04:57:07.918Z,100786.81
2023-05-02T05:00:12.718Z,100806.53
2023-05-02T05:03:14.489Z,100796.69
2023-05-02T05:06:16.117Z,100814.69
2023-05-02T05:09:18.592Z,100810.28
2023-05-02T05:12:20.434Z,100817.41
2023-05-02T05:15:23.893Z,100820.13
2023-05-02T05:18:30.836Z,100823.69
2023-05-02T05:21:33.316Z,100828.28
2023-05-02T05:24:35.923Z,100827.25
2023-05-02T05:27:37.957Z,100843.41
2023-05-02T05:30:40.782Z,100844.44
2023-05-02T05:33:45.395Z,100867.88
2023-05-02T05:36:47.572Z,100869.75
2023-05-02T05:39:49.027Z,100885.03
2023-05-02T05:42:50.638Z,100897.75
2023-05-02T05:45:58.265Z,100910.50
2023-05-02T05:49:00.087Z,100913.22
2023-05-02T05:52:03.192Z,100928.69
2023-05-02T05:55:05.601Z,100927.81
2023-05-02T05:58:07.993Z,100944.28
2023-05-02T06:01:11.629Z,100943.25
2023-05-02T06:04:13.339Z,100955.16
2023-05-02T06:07:18.206Z,100960.72
2023-05-02T06:10:20.179Z,100974.19
2023-05-02T06:13:21.983Z,100981.47
2023-05-02T06:16:24.978Z,100992.34
2023-05-02T06:19:26.620Z,100998.78
2023-05-02T06:22:28.126Z,100999.78
2023-05-02T06:25:29.737Z,101006.22
2023-05-02T06:28:31.766Z,101010.81
2023-05-02T06:31:33.331Z,101012.66
2023-05-02T06:34:34.946Z,101019.97
2023-05-02T06:37:36.581Z,101027.28
2023-05-02T06:40:45.124Z,101023.69
2023-05-02T06:43:46.604Z,101027.41
2023-05-02T06:46:48.207Z,101037.44
2023-05-02T06:49:53.727Z,101040.16
2023-05-02T06:52:55.470Z,101043.00
2023-05-02T06:55:57.343Z,101041.16
2023-05-02T06:58:58.895Z,101059.31
2023-05-02T07:02:01.234Z,101062.03
2023-05-02T07:05:03.430Z,101064.75
2023-05-02T07:08:05.118Z,101053.88
2023-05-02T07:11:06.570Z,101059.31
2023-05-02T07:14:08.517Z,101063.06
2023-05-02T07:17:10.167Z,101072.06
2023-05-02T07:20:12.215Z,101078.34
2023-05-02T07:23:13.689Z,101076.63
2023-05-02T07:26:15.260Z,101092.94
2023-05-02T07:29:16.797Z,101092.94
2023-05-02T07:32:18.403Z,101102.97
2023-05-02T07:35:19.983Z,101106.63
2023-05-02T07:38:21.455Z,101110.19
2023-05-02T07:41:23.009Z,101114.69
2023-05-02T07:44:24.520Z,101103.91
2023-05-02T07:47:26.608Z,101111.13
2023-05-02T07:50:28.224Z,101113.94
2023-05-02T07:53:29.719Z,101115.63
2023-05-02T07:56:31.449Z,101117.50
2023-05-02T07:59:32.913Z,101126.69
2023-05-02T08:02:36.658Z,101126.69
2023-05-02T08:05:38.255Z,101130.38
2023-05-02T08:08:39.817Z,101128.53
2023-05-02T08:11:41.340Z,101149.41
2023-05-02T08:14:43.007Z,101153.13
2023-05-02T08:17:44.601Z,101155.00
2023-05-02T08:20:46.282Z,101158.69
2023-05-02T08:23:47.789Z,101169.56
2023-05-02T08:26:49.337Z,101177.72
2023-05-02T08:29:50.914Z,101176.03
2023-05-02T08:32:52.426Z,101181.47
2023-05-02T08:35:54.097Z,101190.63
2023-05-02T08:38:55.634Z,101196.91
2023-05-02T08:41:57.145Z,101198.91
2023-05-02T08:44:58.845Z,101208.75
2023-05-02T08:48:00.875Z,101206.03
2023-05-02T08:51:04.038Z,101209.63
2023-05-02T08:54:07.569Z,101211.47
2023-05-02T08:57:09.490Z,101220.66
2023-05-02T09:00:11.781Z,101227.09
2023-05-02T09:03:21.317Z,101231.50
2023-05-02T09:06:24.310Z,101239.78
2023-05-02T09:09:26.810Z,101248.84
2023-05-02T09:12:28.321Z,101249.81
2023-05-02T09:15:29.790Z,101256.09
2023-05-02T09:18:36.274Z,101264.25
2023-05-02T09:21:39.962Z,101265.25
2023-05-02T09:24:41.548Z,101272.56
2023-05-02T09:27:51.262Z,101277.84
2023-05-02T09:31:06.867Z,101282.41
2023-05-02T09:34:10.651Z,101280.72
2023-05-02T09:37:35.664Z,101282.56
2023-05-02T09:40:37.846Z,101282.56
2023-05-02T09:43:40.200Z,101285.44
2023-05-02T09:46:42.895Z,101282.72
2023-05-02T09:49:46.456Z,101290.00
2023-05-02T09:53:02.428Z,101292.56
2023-05-02T09:56:04.666Z,101296.28
2023-05-02T09:59:17.199Z,101301.72
2023-05-02T10:02:21.679Z,101307.16
2023-05-02T10:05:23.359Z,101308.19
2023-05-02T10:08:27.476Z,101309.88
2023-05-02T10:11:31.447Z,101327.03
2023-05-02T10:14:39.469Z,101320.63
2023-05-02T10:17:48.018Z,101322.31
2023-05-02T10:20:57.084Z,101333.06
2023-05-02T10:23:59.165Z,101333.06
2023-05-02T10:27:02.325Z,101333.75
2023-05-02T10:30:06.498Z,101338.03
2023-05-02T10:33:08.224Z,101334.34
2023-05-02T10:36:14.522Z,101334.16
2023-05-02T10:39:16.389Z,101326.91
2023-05-02T10:42:20.630Z,101334.78
2023-05-02T10:45:31.337Z,101332.78
2023-05-02T10:48:33.949Z,101336.38
2023-05-02T10:51:38.256Z,101338.06
2023-05-02T10:54:39.836Z,101331.66
2023-05-02T10:57:59.686Z,101335.94
2023-05-02T11:01:27.025Z,101348.38
2023-05-02T11:04:47.081Z,101349.34
2023-05-02T11:07:48.609Z,101346.66
2023-05-02T11:10:50.094Z,101356.53
2023-05-02T11:13:51.619Z,101351.94
2023-05-02T11:16:59.508Z,101359.09
2023-05-02T11:20:01.676Z,101358.53
2023-05-02T11:23:32.419Z,101362.94
2023-05-02T11:26:33.960Z,101357.81
2023-05-02T11:29:57.262Z,101356.78
2023-05-02T11:33:04.970Z,101365.81
2023-05-02T11:36:06.595Z,101361.53
2023-05-02T11:39:19.392Z,101363.25
2023-05-02T11:42:31.421Z,101370.53
2023-05-02T11:45:36.122Z,101374.25
2023-05-02T11:48:37.785Z,101371.69
2023-05-02T11:51:39.403Z,101370.84
2023-05-02T11:54:41.029Z,101381.53
2023-05-02T11:57:42.867Z,101370.84
2023-05-02T12:00:48.398Z,101376.28
2023-05-02T12:03:52.506Z,101382.56
2023-05-02T12:06:58.749Z,101377.97
2023-05-02T12:10:00.343Z,101382.56
2023-05-02T12:13:06.394Z,101383.28
2023-05-02T12:16:08.156Z,101386.13
2023-05-02T12:19:10.060Z,101385.13
2023-05-02T12:22:13.298Z,101386.00
2023-05-02T12:25:15.040Z,101386.00
2023-05-02T12:28:20.127Z,101388.56
2023-05-02T12:31:22.573Z,101390.41
2023-05-02T12:34:34.208Z,101386.84
2023-05-02T12:37:35.763Z,101389.69
2023-05-02T12:40:37.560Z,101386.97
2023-05-02T12:43:49.743Z,101397.72
2023-05-02T12:46:59.646Z,101411.31
2023-05-02T12:50:01.718Z,101426.75
2023-05-02T12:53:03.885Z,101423.03
2023-05-02T12:56:06.439Z,101413.88
2023-05-02T12:59:08.324Z,101426.47
2023-05-02T13:02:09.853Z,101426.19
2023-05-02T13:05:18.437Z,101427.75
2023-05-02T13:08:20.671Z,101428.78
2023-05-02T13:11:22.348Z,101427.88
2023-05-02T13:14:23.926Z,101433.13
2023-05-02T13:17:25.642Z,101443.59
2023-05-02T13:20:27.188Z,101439.09
2023-05-02T13:23:28.756Z,101436.09
2023-05-02T13:26:30.431Z,101438.09
2023-05-02T13:29:32.011Z,101436.97
2023-05-02T13:32:33.578Z,101444.81
2023-05-02T13:35:35.457Z,101453.41
2023-05-02T13:38:37.050Z,101448.56
2023-05-02T13:41:38.584Z,101453.56
2023-05-02T13:44:40.432Z,101446.88
2023-05-02T13:47:41.931Z,101450.31
2023-05-02T13:50:43.495Z,101453.59
2023-05-02T13:53:45.288Z,101455.31
2023-05-02T13:56:46.845Z,101463.19
2023-05-02T13:59:48.449Z,101453.16
2023-05-02T14:02:50.289Z,101460.91
2023-05-02T14:05:51.847Z,101460.06
2023-05-02T14:08:53.369Z,101461.66
2023-05-02T14:11:55.542Z,101463.25
2023-05-02T14:14:57.149Z,101463.06
2023-05-02T14:17:58.728Z,101467.53
2023-05-02T14:21:00.348Z,101471.81
2023-05-02T14:24:01.872Z,101477.09
2023-05-02T14:27:04.583Z,101463.38
2023-05-02T14:30:07.301Z,101469.97
2023-05-02T14:33:08.979Z,101473.22
2023-05-02T14:36:10.555Z,101476.47
2023-05-02T14:39:12.038Z,101484.63
2023-05-02T14:42:13.500Z,101489.34
2023-05-02T14:45:15.059Z,101491.94
2023-05-02T14:48:17.454Z,101492.78
2023-05-02T14:51:19.076Z,101498.94
2023-05-02T14:54:20.932Z,101501.50
2023-05-02T14:57:22.486Z,101502.25
2023-05-02T15:00:24.322Z,101505.72
2023-05-02T15:03:25.953Z,101505.59
2023-05-02T15:06:34.225Z,101510.72
2023-05-02T15:09:36.020Z,101505.28
2023-05-02T15:12:37.581Z,101510.56
2023-05-02T15:15:39.113Z,101519.59
2023-05-02T15:18:40.789Z,101513.16
2023-05-02T15:21:42.287Z,101510.44
2023-05-02T15:24:43.854Z,101515.88
2023-05-02T15:27:45.354Z,101521.31
2023-05-02T15:30:48.953Z,101524.16
2023-05-02T15:33:51.245Z,101525.03
2023-05-02T15:36:54.681Z,101525.91
2023-05-02T15:39:57.077Z,101524.31
2023-05-02T15:42:58.582Z,101526.03
2023-05-02T15:46:00.881Z,101531.47
2023-05-02T15:49:02.417Z,101523.47
2023-05-02T15:52:04.021Z,101525.28
2023-05-02T15:55:06.126Z,101529.03
2023-05-02T15:58:08.186Z,101541.59
2023-05-02T16:01:09.716Z,101540.75
2023-05-02T16:04:11.554Z,101542.63
2023-05-02T16:07:13.196Z,101540.75
2023-05-02T16:10:14.840Z,101550.78
2023-05-02T16:13:16.538Z,101547.31
2023-05-02T16:16:18.082Z,101551.78
2023-05-02T16:19:19.597Z,101553.63
2023-05-02T16:22:21.370Z,101555.47
2023-05-02T16:25:22.947Z,101555.47
2023-05-02T16:28:24.744Z,101562.66
2023-05-02T16:31:26.762Z,101562.50
2023-05-02T16:34:31.378Z,101558.78
2023-05-02T16:37:35.995Z,101564.22
2023-05-02T16:40:37.645Z,101566.94
2023-05-02T16:43:39.260Z,101563.34
2023-05-02T16:46:41.477Z,101573.25
2023-05-02T16:49:42.982Z,101571.38
2023-05-02T16:52:44.528Z,101575.78
2023-05-02T16:55:46.023Z,101572.97
2023-05-02T16:58:47.481Z,101571.81
2023-05-02T17:01:49.899Z,101579.69
2023-05-02T17:04:51.707Z,101571.41
2023-05-02T17:07:53.162Z,101575.69
2023-05-02T17:10:54.628Z,101570.09
2023-05-02T17:13:56.238Z,101579.84
2023-05-02T17:16:58.189Z,101575.00
2023-05-02T17:19:59.722Z,101578.56
2023-05-02T17:23:02.190Z,101581.16
2023-05-02T17:26:05.465Z,101592.72
2023-05-02T17:29:07.222Z,101594.47
2023-05-02T17:32:08.779Z,101596.19
2023-05-02T17:35:10.410Z,101595.03
2023-05-02T17:38:11.931Z,101606.66
2023-05-02T17:41:14.837Z,101597.47
2023-05-02T17:44:16.431Z,101595.47
2023-05-02T17:47:19.669Z,101604.38
2023-05-02T17:50:21.564Z,101600.63
2023-05-02T17:53:23.110Z,101609.50
2023-05-02T17:56:24.597Z,101611.94
2023-05-02T17:59:27.224Z,101600.09
2023-05-02T18:02:28.787Z,101601.78
2023-05-02T18:05:30.457Z,101606.25
2023-05-02T18:08:32.102Z,101614.41
2023-05-02T18:11:33.662Z,101611.69
2023-05-02T18:14:35.192Z,101615.25
2023-05-02T18:17:39.710Z,101629.72
2023-05-02T18:20:41.312Z,101627.84
2023-05-02T18:23:42.803Z,101625.13
2023-05-02T18:26:44.291Z,101617.97
2023-05-02T18:29:45.820Z,101615.38
2023-05-02T18:32:47.337Z,101619.97
2023-05-02T18:35:49.157Z,101618.41
2023-05-02T18:38:50.650Z,101627.41
2023-05-02T18:41:53.732Z,101624.69
2023-05-02T18:44:55.365Z,101626.56
2023-05-02T18:47:56.971Z,101624.84
2023-05-02T18:50:58.585Z,101625.84
2023-05-02T18:54:00.249Z,101625.84
2023-05-02T18:57:02.790Z,101635.00
2023-05-02T19:00:06.420Z,101634.16
2023-05-02T19:03:08.194Z,101627.13
2023-05-02T19:06:10.715Z,101638.88
2023-05-02T19:09:15.687Z,101651.59
2023-05-02T19:12:17.179Z,101648.16
2023-05-02T19:15:18.727Z,101651.00
2023-05-02T19:18:22.985Z,101652.88
2023-05-02T19:21:24.522Z,101663.03
2023-05-02T19:24:26.328Z,101661.31
2023-05-02T19:27:27.814Z,101667.72
2023-05-02T19:30:29.368Z,101674.06
2023-05-02T19:33:31.002Z,101684.22
2023-05-02T19:36:32.508Z,101679.75
2023-05-02T19:39:33.994Z,101681.75
2023-05-02T19:42:37.283Z,101681.88
2023-05-02T19:45:38.895Z,101691.06
2023-05-02T19:48:40.554Z,101689.31
2023-05-02T19:51:42.009Z,101691.19
2023-05-02T19:54:43.626Z,101694.91
2023-05-02T19:57:45.166Z,101696.91
2023-05-02T20:00:49.221Z,101703.31
2023-05-02T20:03:51.079Z,101703.31
2023-05-02T20:06:52.808Z,101707.16
2023-05-02T20:09:55.433Z,101713.50
2023-05-02T20:12:56.994Z,101710.91
2023-05-02T20:15:58.546Z,101710.03
2023-05-02T20:19:00.045Z,101718.31
2023-05-02T20:22:01.610Z,101713.91
2023-05-02T20:25:03.649Z,101717.59
2023-05-02T20:28:05.785Z,101723.91
2023-05-02T20:31:07.908Z,101728.63
2023-05-02T20:34:09.492Z,101729.59
2023-05-02T20:37:12.409Z,101732.31
2023-05-02T20:40:14.051Z,101731.47
2023-05-02T20:43:18.665Z,101736.03
2023-05-02T20:46:21.107Z,101731.47
2023-05-02T20:49:22.645Z,101729.03
2023-05-02T20:52:24.517Z,101731.75
2023-05-02T20:55:26.108Z,101728.28
2023-05-02T20:58:27.661Z,101731.00
2023-05-02T21:01:29.253Z,101734.72
2023-05-02T21:04:30.840Z,101744.75
2023-05-02T21:07:32.491Z,101743.00
2023-05-02T21:10:33.991Z,101750.31
2023-05-02T21:13:35.454Z,101742.28
2023-05-02T21:16:37.144Z,101735.13
2023-05-02T21:19:38.661Z,101736.00
2023-05-02T21:22:41.863Z,101748.81
2023-05-02T21:25:43.477Z,101737.94
2023-05-02T21:28:45.008Z,101746.25
2023-05-02T21:31:46.870Z,101748.09
2023-05-02T21:34:48.397Z,101752.81
2023-05-02T21:37:49.915Z,101761.94
2023-05-02T21:40:51.799Z,101760.22
2023-05-02T21:43:54.015Z,101753.94
2023-05-02T21:46:55.723Z,101754.91
2023-05-02T21:49:57.394Z,101755.91
2023-05-02T21:52:58.915Z,101748.63
2023-05-02T21:56:00.415Z,101755.91
2023-05-02T21:59:01.865Z,101753.31
2023-05-02T22:02:03.653Z,101756.19
2023-05-02T22:05:05.504Z,101762.59
2023-05-02T22:08:12.036Z,101755.34
2023-05-02T22:11:15.183Z,101764.63
2023-05-02T22:14:16.732Z,101764.75
2023-05-02T22:17:18.437Z,101759.31
2023-05-02T22:20:20.006Z,101771.19
2023-05-02T22:23:21.673Z,101772.16
2023-05-02T22:26:23.473Z,101768.59
2023-05-02T22:29:24.971Z,101761.44
2023-05-02T22:32:26.783Z,101759.69
2023-05-02T22:35:28.762Z,101760.69
2023-05-02T22:38:30.305Z,101765.28
2023-05-02T22:41:31.775Z,101768.13
2023-05-02T22:44:37.946Z,101775.41
2023-05-02T22:47:45.075Z,101779.09
2023-05-02T22:50:48.495Z,101775.53
2023-05-02T22:53:49.955Z,101781.13
2023-05-02T22:56:53.225Z,101779.25
2023-05-02T22:59:54.674Z,101787.53
2023-05-02T23:02:56.316Z,101780.38
2023-05-02T23:05:57.830Z,101779.53
2023-05-02T23:08:59.371Z,101771.50
2023-05-02T23:12:02.507Z,101777.78
2023-05-02T23:15:04.338Z,101774.22
2023-05-02T23:18:06.185Z,101777.94
2023-05-02T23:21:14.162Z,101780.66
2023-05-02T23:24:15.940Z,101776.19
2023-05-02T23:27:17.433Z,101780.88
2023-05-02T23:30:19.103Z,101780.03
2023-05-02T23:33:21.050Z,101765.59
2023-05-02T23:36:22.624Z,101778.31
2023-05-02T23:39:24.087Z,101776.56
2023-05-02T23:42:25.706Z,101781.16
2023-05-02T23:45:27.216Z,101780.28
2023-05-02T23:48:28.681Z,101790.31
2023-05-02T23:51:31.686Z,101793.03
2023-05-02T23:54:34.814Z,101782.28
2023-05-02T23:57:37.010Z,101793.13
